createdAt,value
2022-08-28T00:00:22.568Z,78.02
2022-08-28T00:01:22.558Z,78.02
2022-08-28T00:02:22.567Z,77.92
2022-08-28T00:03:22.539Z,78.36
2022-08-28T00:04:22.590Z,78.42
2022-08-28T00:05:22.540Z,78.26
2022-08-28T00:06:22.504Z,78.63
2022-08-28T00:07:22.497Z,78.46
2022-08-28T00:08:22.494Z,78.86
2022-08-28T00:09:22.482Z,79.57
2022-08-28T00:10:22.751Z,79.57
2022-08-28T00:11:22.463Z,79.63
2022-08-28T00:12:22.453Z,79.13
2022-08-28T00:13:22.461Z,78.66
2022-08-28T00:14:22.435Z,78.76
2022-08-28T00:15:22.436Z,79.16
2022-08-28T00:16:22.476Z,78.86
2022-08-28T00:17:22.405Z,79.81
2022-08-28T00:18:22.390Z,80.11
2022-08-28T00:19:22.377Z,79.91
2022-08-28T00:20:22.387Z,79.91
2022-08-28T00:21:22.362Z,79.77
2022-08-28T00:22:22.349Z,79.67
2022-08-28T00:23:22.339Z,79.47
2022-08-28T00:24:22.331Z,79.57
2022-08-28T00:25:22.340Z,78.86
2022-08-28T00:26:22.312Z,79.03
2022-08-28T00:27:22.302Z,78.26
2022-08-28T00:28:24.403Z,78.22
2022-08-28T00:29:22.277Z,78.02
2022-08-28T00:30:22.298Z,77.82
2022-08-28T00:31:22.320Z,78.06
2022-08-28T00:32:22.249Z,78.06
2022-08-28T00:33:22.240Z,78.02
2022-08-28T00:34:25.494Z,77.86
2022-08-28T00:35:23.254Z,77.95
2022-08-28T00:36:22.211Z,77.86
2022-08-28T00:37:24.636Z,77.25
2022-08-28T00:38:22.189Z,77.89
2022-08-28T00:39:22.182Z,77.89
2022-08-28T00:40:28.872Z,78.19
2022-08-28T00:41:24.992Z,78.09
2022-08-28T00:42:23.154Z,78.50
2022-08-28T00:43:22.144Z,78.09
2022-08-28T00:44:22.129Z,77.79
2022-08-28T00:45:22.135Z,76.72
2022-08-28T00:46:22.160Z,76.92
2022-08-28T00:47:22.103Z,77.73
2022-08-28T00:48:22.087Z,77.83
2022-08-28T00:49:22.079Z,77.73
2022-08-28T00:50:22.100Z,77.28
2022-08-28T00:51:22.060Z,76.48
2022-08-28T00:52:22.041Z,76.88
2022-08-28T00:53:25.321Z,76.38
2022-08-28T00:54:22.031Z,76.98
2022-08-28T00:55:22.069Z,76.44
2022-08-28T00:56:22.012Z,76.24
2022-08-28T00:57:22.001Z,76.14
2022-08-28T00:58:22.988Z,76.54
2022-08-28T00:59:21.980Z,76.24
2022-08-28T01:00:21.985Z,75.54
2022-08-28T01:01:22.027Z,75.74
2022-08-28T01:02:22.000Z,75.30
2022-08-28T01:03:25.074Z,75.50
2022-08-28T01:04:21.932Z,75.30
2022-08-28T01:05:22.011Z,75.30
2022-08-28T01:06:21.911Z,75.06
2022-08-28T01:07:21.898Z,74.46
2022-08-28T01:08:21.886Z,75.20
2022-08-28T01:09:21.883Z,74.26
2022-08-28T01:10:21.913Z,73.38
2022-08-28T01:11:21.858Z,73.05
2022-08-28T01:12:21.849Z,72.44
2022-08-28T01:13:21.838Z,72.14
2022-08-28T01:14:21.825Z,71.53
2022-08-28T01:15:21.818Z,71.13
2022-08-28T01:16:21.854Z,70.97
2022-08-28T01:17:21.843Z,71.26
2022-08-28T01:18:21.791Z,70.97
2022-08-28T01:19:21.781Z,72.20
2022-08-28T01:20:21.770Z,72.91
2022-08-28T01:21:21.774Z,72.95
2022-08-28T01:22:21.748Z,73.11
2022-08-28T01:23:21.740Z,72.51
2022-08-28T01:24:21.723Z,72.71
2022-08-28T01:25:21.719Z,72.81
2022-08-28T01:26:21.752Z,72.61
2022-08-28T01:27:21.690Z,72.61
2022-08-28T01:28:21.685Z,72.58
2022-08-28T01:29:21.677Z,72.27
2022-08-28T01:30:21.663Z,72.31
2022-08-28T01:31:21.747Z,73.11
2022-08-28T01:32:21.643Z,72.75
2022-08-28T01:33:28.077Z,72.98
2022-08-28T01:34:22.613Z,73.99
2022-08-28T01:35:22.610Z,74.09
2022-08-28T01:36:21.616Z,74.19
2022-08-28T01:37:21.591Z,73.58
2022-08-28T01:38:21.901Z,73.28
2022-08-28T01:39:22.573Z,73.49
2022-08-28T01:40:21.623Z,73.45
2022-08-28T01:41:21.568Z,73.15
2022-08-28T01:42:21.543Z,72.85
2022-08-28T01:43:21.532Z,72.64
2022-08-28T01:44:21.522Z,73.15
2022-08-28T01:45:21.513Z,73.38
2022-08-28T01:46:21.601Z,73.58
2022-08-28T01:47:21.492Z,73.93
2022-08-28T01:48:21.479Z,74.22
2022-08-28T01:49:21.470Z,74.22
2022-08-28T01:50:21.462Z,74.66
2022-08-28T01:51:24.492Z,75.81
2022-08-28T01:52:26.395Z,76.02
2022-08-28T01:53:23.552Z,75.81
2022-08-28T01:54:21.423Z,76.08
2022-08-28T01:55:21.665Z,75.68
2022-08-28T01:56:21.446Z,75.98
2022-08-28T01:57:21.389Z,74.77
2022-08-28T01:58:21.382Z,74.77
2022-08-28T01:59:21.376Z,74.63
2022-08-28T02:00:21.360Z,75.24
2022-08-28T02:01:21.409Z,75.04
2022-08-28T02:02:21.353Z,75.04
2022-08-28T02:03:21.321Z,75.04
2022-08-28T02:04:21.372Z,74.73
2022-08-28T02:05:22.314Z,75.17
2022-08-28T02:06:21.299Z,75.78
2022-08-28T02:07:21.301Z,76.08
2022-08-28T02:08:21.281Z,75.78
2022-08-28T02:09:21.266Z,75.98
2022-08-28T02:10:21.260Z,75.57
2022-08-28T02:11:21.251Z,75.68
2022-08-28T02:12:21.255Z,75.48
2022-08-28T02:13:21.228Z,75.78
2022-08-28T02:14:21.224Z,75.37
2022-08-28T02:15:23.702Z,74.73
2022-08-28T02:16:21.214Z,75.04
2022-08-28T02:17:21.207Z,74.22
2022-08-28T02:18:21.188Z,74.13
2022-08-28T02:19:21.178Z,73.69
2022-08-28T02:20:21.165Z,73.49
2022-08-28T02:21:21.144Z,74.09
2022-08-28T02:22:21.151Z,74.13
2022-08-28T02:23:21.124Z,74.53
2022-08-28T02:24:21.120Z,74.43
2022-08-28T02:25:21.106Z,75.27
2022-08-28T02:26:21.098Z,74.97
2022-08-28T02:27:21.121Z,75.37
2022-08-28T02:28:21.076Z,75.57
2022-08-28T02:29:21.072Z,75.37
2022-08-28T02:30:21.055Z,75.48
2022-08-28T02:31:21.087Z,75.98
2022-08-28T02:32:21.080Z,76.18
2022-08-28T02:33:21.032Z,76.62
2022-08-28T02:34:21.021Z,76.62
2022-08-28T02:35:21.010Z,76.93
2022-08-28T02:36:20.997Z,75.71
2022-08-28T02:37:20.995Z,76.48
2022-08-28T02:38:21.004Z,76.32
2022-08-28T02:39:20.968Z,76.52
2022-08-28T02:40:21.066Z,76.48
2022-08-28T02:41:20.948Z,76.82
2022-08-28T02:42:20.940Z,75.98
2022-08-28T02:43:20.947Z,76.28
2022-08-28T02:44:20.923Z,76.48
2022-08-28T02:45:20.911Z,76.04
2022-08-28T02:46:20.955Z,75.64
2022-08-28T02:47:20.891Z,74.53
2022-08-28T02:48:20.992Z,74.33
2022-08-28T02:49:20.874Z,73.99
2022-08-28T02:50:20.872Z,73.89
2022-08-28T02:51:20.851Z,73.99
2022-08-28T02:52:20.841Z,74.19
2022-08-28T02:53:20.869Z,74.22
2022-08-28T02:54:20.828Z,75.17
2022-08-28T02:55:20.808Z,74.46
2022-08-28T02:56:20.801Z,75.98
2022-08-28T02:57:20.787Z,75.07
2022-08-28T02:58:20.794Z,75.48
2022-08-28T02:59:20.771Z,74.77
2022-08-28T03:00:20.759Z,74.63
2022-08-28T03:01:20.784Z,74.53
2022-08-28T03:02:20.754Z,74.13
2022-08-28T03:03:20.742Z,74.13
2022-08-28T03:04:20.715Z,73.93
2022-08-28T03:05:20.704Z,73.89
2022-08-28T03:06:20.698Z,74.13
2022-08-28T03:07:20.688Z,74.02
2022-08-28T03:08:20.691Z,74.16
2022-08-28T03:09:21.668Z,76.12
2022-08-28T03:10:20.657Z,75.92
2022-08-28T03:11:20.647Z,75.92
2022-08-28T03:12:20.638Z,75.92
2022-08-28T03:13:23.114Z,76.26
2022-08-28T03:14:21.610Z,76.86
2022-08-28T03:15:20.603Z,77.10
2022-08-28T03:16:20.660Z,77.34
2022-08-28T03:17:20.582Z,77.54
2022-08-28T03:18:20.590Z,77.64
2022-08-28T03:19:20.565Z,77.64
2022-08-28T03:20:20.557Z,77.95
2022-08-28T03:21:20.541Z,77.84
2022-08-28T03:22:20.533Z,78.11
2022-08-28T03:23:20.539Z,78.25
2022-08-28T03:24:20.514Z,77.64
2022-08-28T03:25:20.502Z,78.25
2022-08-28T03:26:20.495Z,77.84
2022-08-28T03:27:20.487Z,77.30
2022-08-28T03:28:20.484Z,77.20
2022-08-28T03:29:20.457Z,77.57
2022-08-28T03:30:20.454Z,77.06
2022-08-28T03:31:20.468Z,76.90
2022-08-28T03:32:20.437Z,77.06
2022-08-28T03:33:20.442Z,76.97
2022-08-28T03:34:20.417Z,76.62
2022-08-28T03:35:20.406Z,76.42
2022-08-28T03:36:20.393Z,76.32
2022-08-28T03:37:20.383Z,76.32
2022-08-28T03:38:20.387Z,74.90
2022-08-28T03:39:20.367Z,75.55
2022-08-28T03:40:20.417Z,77.40
2022-08-28T03:41:20.342Z,78.05
2022-08-28T03:42:20.333Z,77.50
2022-08-28T03:43:20.361Z,78.05
2022-08-28T03:44:20.313Z,77.64
2022-08-28T03:45:20.302Z,77.61
2022-08-28T03:46:20.328Z,77.77
2022-08-28T03:47:20.645Z,77.06
2022-08-28T03:48:20.302Z,76.97
2022-08-28T03:49:20.260Z,77.37
2022-08-28T03:50:20.250Z,76.76
2022-08-28T03:51:21.183Z,76.46
2022-08-28T03:52:21.232Z,76.26
2022-08-28T03:53:20.234Z,76.35
2022-08-28T03:54:20.229Z,76.46
2022-08-28T03:55:20.200Z,76.02
2022-08-28T03:56:20.193Z,75.92
2022-08-28T03:57:20.184Z,75.71
2022-08-28T03:58:20.176Z,76.02
2022-08-28T03:59:20.178Z,76.02
2022-08-28T04:00:20.156Z,76.02
2022-08-28T04:01:20.200Z,76.02
2022-08-28T04:02:20.137Z,76.12
2022-08-28T04:03:20.212Z,75.88
2022-08-28T04:04:20.138Z,74.97
2022-08-28T04:05:20.108Z,75.81
2022-08-28T04:06:20.100Z,75.71
2022-08-28T04:07:20.087Z,76.02
2022-08-28T04:08:20.083Z,75.92
2022-08-28T04:09:20.105Z,75.71
2022-08-28T04:10:20.054Z,76.02
2022-08-28T04:11:20.061Z,75.51
2022-08-28T04:12:20.037Z,75.07
2022-08-28T04:13:20.032Z,74.87
2022-08-28T04:14:20.048Z,74.77
2022-08-28T04:15:20.010Z,75.37
2022-08-28T04:16:20.021Z,74.77
2022-08-28T04:17:19.998Z,74.70
2022-08-28T04:18:19.977Z,75.31
2022-08-28T04:19:20.005Z,75.81
2022-08-28T04:20:19.962Z,75.81
2022-08-28T04:21:19.953Z,76.26
2022-08-28T04:22:19.931Z,77.84
2022-08-28T04:23:19.926Z,77.54
2022-08-28T04:24:19.915Z,78.25
2022-08-28T04:25:19.924Z,78.28
2022-08-28T04:26:19.895Z,78.89
2022-08-28T04:27:19.887Z,78.59
2022-08-28T04:28:19.878Z,78.86
2022-08-28T04:29:19.867Z,79.00
2022-08-28T04:30:19.880Z,79.71
2022-08-28T04:31:19.873Z,79.57
2022-08-28T04:32:20.894Z,78.96
2022-08-28T04:33:19.830Z,79.13
2022-08-28T04:34:19.820Z,78.72
2022-08-28T04:35:19.838Z,78.62
2022-08-28T04:36:19.825Z,78.31
2022-08-28T04:37:19.784Z,77.47
2022-08-28T04:38:19.774Z,77.37
2022-08-28T04:39:19.764Z,78.08
2022-08-28T04:40:19.824Z,77.87
2022-08-28T04:41:19.761Z,77.17
2022-08-28T04:42:19.734Z,77.61
2022-08-28T04:43:19.723Z,78.66
2022-08-28T04:44:19.712Z,79.80
2022-08-28T04:45:19.703Z,80.31
2022-08-28T04:46:19.777Z,80.11
2022-08-28T04:47:19.682Z,79.80
2022-08-28T04:48:19.706Z,80.21
2022-08-28T04:49:19.670Z,79.91
2022-08-28T04:50:19.655Z,79.97
2022-08-28T04:51:19.656Z,79.97
2022-08-28T04:52:19.629Z,79.16
2022-08-28T04:53:19.617Z,78.82
2022-08-28T04:54:19.610Z,78.82
2022-08-28T04:55:27.833Z,78.82
2022-08-28T04:56:45.504Z,78.31
2022-08-28T04:57:19.573Z,78.17
2022-08-28T04:58:19.568Z,77.47
2022-08-28T04:59:19.560Z,78.01
2022-08-28T05:00:19.542Z,78.01
2022-08-28T05:01:19.584Z,78.52
2022-08-28T05:02:19.634Z,77.57
2022-08-28T05:03:19.521Z,78.11
2022-08-28T05:04:19.503Z,78.17
2022-08-28T05:05:19.493Z,77.37
2022-08-28T05:06:19.482Z,77.67
2022-08-28T05:07:19.491Z,77.37
2022-08-28T05:08:19.462Z,77.97
2022-08-28T05:09:19.452Z,77.84
2022-08-28T05:10:19.438Z,77.53
2022-08-28T05:11:34.373Z,76.22
2022-08-28T05:12:20.439Z,75.88
2022-08-28T05:13:19.427Z,75.98
2022-08-28T05:14:19.408Z,76.39
2022-08-28T05:15:19.397Z,74.66
2022-08-28T05:16:19.398Z,75.31
2022-08-28T05:17:19.390Z,75.24
2022-08-28T05:18:19.364Z,76.15
2022-08-28T05:19:19.434Z,76.15
2022-08-28T05:20:19.341Z,75.81
2022-08-28T05:21:19.332Z,76.02
2022-08-28T05:22:19.350Z,76.32
2022-08-28T05:23:19.332Z,75.78
2022-08-28T05:24:19.301Z,74.87
2022-08-28T05:25:19.296Z,74.97
2022-08-28T05:26:19.278Z,75.31
2022-08-28T05:27:19.329Z,74.80
2022-08-28T05:28:19.263Z,75.51
2022-08-28T05:29:19.256Z,75.81
2022-08-28T05:30:19.242Z,74.90
2022-08-28T05:31:19.283Z,75.10
2022-08-28T05:32:19.221Z,75.27
2022-08-28T05:33:19.231Z,74.97
2022-08-28T05:34:19.202Z,74.80
2022-08-28T05:35:19.193Z,75.04
2022-08-28T05:36:19.182Z,76.39
2022-08-28T05:37:19.831Z,77.34
2022-08-28T05:38:20.186Z,77.14
2022-08-28T05:39:19.155Z,77.00
2022-08-28T05:40:19.187Z,77.00
2022-08-28T05:41:19.131Z,76.79
2022-08-28T05:42:19.118Z,76.59
2022-08-28T05:43:19.139Z,76.56
2022-08-28T05:44:19.096Z,76.76
2022-08-28T05:45:19.084Z,75.95
2022-08-28T05:46:19.134Z,76.46
2022-08-28T05:47:21.714Z,76.86
2022-08-28T05:48:19.056Z,75.24
2022-08-28T05:49:19.063Z,75.89
2022-08-28T05:50:19.033Z,76.79
2022-08-28T05:51:19.039Z,77.03
2022-08-28T05:52:19.017Z,77.03
2022-08-28T05:53:19.004Z,76.32
2022-08-28T05:54:19.015Z,76.70
2022-08-28T05:55:18.988Z,77.40
2022-08-28T05:56:18.996Z,76.43
2022-08-28T05:57:18.965Z,76.63
2022-08-28T05:58:18.952Z,76.73
2022-08-28T05:59:18.974Z,76.63
2022-08-28T06:00:18.938Z,77.64
2022-08-28T06:01:18.929Z,77.61
2022-08-28T06:02:18.959Z,76.09
2022-08-28T06:03:18.905Z,76.39
2022-08-28T06:04:19.051Z,76.53
2022-08-28T06:05:18.885Z,75.62
2022-08-28T06:06:18.875Z,76.43
2022-08-28T06:07:18.865Z,76.09
2022-08-28T06:08:18.860Z,76.03
2022-08-28T06:09:18.848Z,76.23
2022-08-28T06:10:18.853Z,76.39
2022-08-28T06:11:18.827Z,76.73
2022-08-28T06:12:18.818Z,76.83
2022-08-28T06:13:19.068Z,75.82
2022-08-28T06:14:18.798Z,76.23
2022-08-28T06:15:18.791Z,76.03
2022-08-28T06:16:19.804Z,76.87
2022-08-28T06:17:23.495Z,77.24
2022-08-28T06:18:19.761Z,76.56
2022-08-28T06:19:18.745Z,77.64
2022-08-28T06:20:18.779Z,76.63
2022-08-28T06:21:18.725Z,76.83
2022-08-28T06:22:18.716Z,76.32
2022-08-28T06:23:21.345Z,75.82
2022-08-28T06:24:19.696Z,75.31
2022-08-28T06:25:18.728Z,76.83
2022-08-28T06:26:18.677Z,75.99
2022-08-28T06:27:18.668Z,75.10
2022-08-28T06:28:18.657Z,73.69
2022-08-28T06:29:20.985Z,72.81
2022-08-28T06:30:18.641Z,70.76
2022-08-28T06:31:23.784Z,69.65
2022-08-28T06:32:20.655Z,68.38
2022-08-28T06:33:18.606Z,66.00
2022-08-28T06:34:18.600Z,64.00
2022-08-28T06:35:18.587Z,62.99
2022-08-28T06:36:18.591Z,62.46
2022-08-28T06:37:18.563Z,62.30
2022-08-28T06:38:18.559Z,61.36
2022-08-28T06:39:18.544Z,60.33
2022-08-28T06:40:18.573Z,61.04
2022-08-28T06:41:18.541Z,59.66
2022-08-28T06:42:18.517Z,62.03
2022-08-28T06:43:18.507Z,64.86
2022-08-28T06:44:18.504Z,66.74
2022-08-28T06:45:18.490Z,67.80
2022-08-28T06:46:18.571Z,70.56
2022-08-28T06:47:18.468Z,72.34
2022-08-28T06:48:18.461Z,73.25
2022-08-28T06:49:18.448Z,73.35
2022-08-28T06:50:18.433Z,72.41
2022-08-28T06:51:18.457Z,73.42
2022-08-28T06:52:18.414Z,72.61
2022-08-28T06:53:18.405Z,72.81
2022-08-28T06:54:22.977Z,72.51
2022-08-28T06:55:19.385Z,72.75
2022-08-28T06:56:25.472Z,73.25
2022-08-28T06:57:19.382Z,73.55
2022-08-28T06:58:18.358Z,72.58
2022-08-28T06:59:18.362Z,73.79
2022-08-28T07:00:18.339Z,72.68
2022-08-28T07:01:18.354Z,73.43
2022-08-28T07:02:18.455Z,74.33
2022-08-28T07:03:18.308Z,74.19
2022-08-28T07:04:18.297Z,73.19
2022-08-28T07:05:18.285Z,73.32
2022-08-28T07:06:18.275Z,73.83
2022-08-28T07:07:31.289Z,74.19
2022-08-28T07:08:19.258Z,73.35
2022-08-28T07:09:18.245Z,72.71
2022-08-28T07:10:18.239Z,72.71
2022-08-28T07:11:18.227Z,72.00
2022-08-28T07:12:18.248Z,73.11
2022-08-28T07:13:18.211Z,73.02
2022-08-28T07:14:18.196Z,72.07
2022-08-28T07:15:18.190Z,71.40
2022-08-28T07:16:18.195Z,69.79
2022-08-28T07:17:18.166Z,70.59
2022-08-28T07:18:18.172Z,69.59
2022-08-28T07:19:18.147Z,68.68
2022-08-28T07:20:18.135Z,67.74
2022-08-28T07:21:18.129Z,66.63
2022-08-28T07:22:18.118Z,67.54
2022-08-28T07:23:18.123Z,68.01
2022-08-28T07:24:18.099Z,66.60
2022-08-28T07:25:18.090Z,66.90
2022-08-28T07:26:18.079Z,66.67
2022-08-28T07:27:19.166Z,66.27
2022-08-28T07:28:19.089Z,66.33
2022-08-28T07:29:18.050Z,68.68
2022-08-28T07:30:18.034Z,69.21
2022-08-28T07:31:18.093Z,70.02
2022-08-28T07:32:18.019Z,69.72
2022-08-28T07:33:18.023Z,70.46
2022-08-28T07:34:18.016Z,70.19
2022-08-28T07:35:17.988Z,70.09
2022-08-28T07:36:28.936Z,69.92
2022-08-28T07:37:18.969Z,71.10
2022-08-28T07:38:17.974Z,70.29
2022-08-28T07:39:17.963Z,69.42
2022-08-28T07:40:18.025Z,69.78
2022-08-28T07:41:17.923Z,70.36
2022-08-28T07:42:17.919Z,68.95
2022-08-28T07:43:17.919Z,69.15
2022-08-28T07:44:17.916Z,69.68
2022-08-28T07:45:17.883Z,69.78
2022-08-28T07:46:17.900Z,69.92
2022-08-28T07:47:17.865Z,69.01
2022-08-28T07:48:21.365Z,68.87
2022-08-28T07:49:17.841Z,70.19
2022-08-28T07:50:17.847Z,67.46
2022-08-28T07:51:17.825Z,68.57
2022-08-28T07:52:17.813Z,68.77
2022-08-28T07:53:17.821Z,69.15
2022-08-28T07:54:18.350Z,69.04
2022-08-28T07:55:17.781Z,67.53
2022-08-28T07:56:17.769Z,68.98
2022-08-28T07:57:17.759Z,69.08
2022-08-28T07:58:17.798Z,68.33
2022-08-28T07:59:19.435Z,69.24
2022-08-28T08:00:17.730Z,68.68
2022-08-28T08:01:17.773Z,68.07
2022-08-28T08:02:17.710Z,66.86
2022-08-28T08:03:17.761Z,66.76
2022-08-28T08:04:17.699Z,66.76
2022-08-28T08:05:17.680Z,67.16
2022-08-28T08:06:17.669Z,66.05
2022-08-28T08:07:17.660Z,67.00
2022-08-28T08:08:17.647Z,65.93
2022-08-28T08:09:17.657Z,64.07
2022-08-28T08:10:20.708Z,64.51
2022-08-28T08:11:17.632Z,65.49
2022-08-28T08:12:17.610Z,64.95
2022-08-28T08:13:17.602Z,63.14
2022-08-28T08:14:17.608Z,63.78
2022-08-28T08:15:17.580Z,63.67
2022-08-28T08:16:17.612Z,65.59
2022-08-28T08:17:17.559Z,64.69
2022-08-28T08:18:17.552Z,64.05
2022-08-28T08:19:17.556Z,64.02
2022-08-28T08:20:17.529Z,64.12
2022-08-28T08:21:17.524Z,62.81
2022-08-28T08:22:17.514Z,63.14
2022-08-28T08:23:17.503Z,64.98
2022-08-28T08:24:20.043Z,64.92
2022-08-28T08:25:17.483Z,65.52
2022-08-28T08:26:17.476Z,64.72
2022-08-28T08:27:17.465Z,64.21
2022-08-28T08:28:17.452Z,64.01
2022-08-28T08:29:17.487Z,64.89
2022-08-28T08:30:17.438Z,63.57
2022-08-28T08:31:17.458Z,63.84
2022-08-28T08:32:17.418Z,65.65
2022-08-28T08:33:17.408Z,65.55
2022-08-28T08:34:17.400Z,65.29
2022-08-28T08:35:17.407Z,66.02
2022-08-28T08:36:17.375Z,65.59
2022-08-28T08:37:17.373Z,65.36
2022-08-28T08:38:17.356Z,64.52
2022-08-28T08:39:17.349Z,64.42
2022-08-28T08:40:17.384Z,63.48
2022-08-28T08:41:17.329Z,63.18
2022-08-28T08:42:17.315Z,62.98
2022-08-28T08:43:17.310Z,63.51
2022-08-28T08:44:17.299Z,65.26
2022-08-28T08:45:17.306Z,65.06
2022-08-28T08:46:17.320Z,64.42
2022-08-28T08:47:17.270Z,63.71
2022-08-28T08:48:17.284Z,63.68
2022-08-28T08:49:17.252Z,63.11
2022-08-28T08:50:17.269Z,63.51
2022-08-28T08:51:17.229Z,62.78
2022-08-28T08:52:17.223Z,62.78
2022-08-28T08:53:18.212Z,61.87
2022-08-28T08:54:17.203Z,62.05
2022-08-28T08:55:17.213Z,60.74
2022-08-28T08:56:17.180Z,61.24
2022-08-28T08:57:17.170Z,60.44
2022-08-28T08:58:17.160Z,61.61
2022-08-28T08:59:17.154Z,61.91
2022-08-28T09:00:17.179Z,60.61
2022-08-28T09:01:17.266Z,62.68
2022-08-28T09:02:17.115Z,63.08
2022-08-28T09:03:17.214Z,63.08
2022-08-28T09:04:21.522Z,62.98
2022-08-28T09:05:18.116Z,61.98
2022-08-28T09:06:17.079Z,62.07
2022-08-28T09:07:17.073Z,61.94
2022-08-28T09:08:17.063Z,61.07
2022-08-28T09:09:17.049Z,61.98
2022-08-28T09:10:17.045Z,61.65
2022-08-28T09:11:18.045Z,61.98
2022-08-28T09:12:17.017Z,62.01
2022-08-28T09:13:17.011Z,61.24
2022-08-28T09:14:17.067Z,62.24
2022-08-28T09:15:17.007Z,61.04
2022-08-28T09:16:17.078Z,60.84
2022-08-28T09:17:16.970Z,59.60
2022-08-28T09:18:16.957Z,61.01
2022-08-28T09:19:16.955Z,59.38
2022-08-28T09:20:16.957Z,60.61
2022-08-28T09:21:16.951Z,60.11
2022-08-28T09:22:16.922Z,61.94
2022-08-28T09:23:16.911Z,60.36
2022-08-28T09:24:16.903Z,62.27
2022-08-28T09:25:16.908Z,61.90
2022-08-28T09:26:16.897Z,63.01
2022-08-28T09:27:16.878Z,62.45
2022-08-28T09:28:16.867Z,61.65
2022-08-28T09:29:16.859Z,60.74
2022-08-28T09:30:16.860Z,61.61
2022-08-28T09:31:18.962Z,59.98
2022-08-28T09:32:16.823Z,59.65
2022-08-28T09:33:16.814Z,59.47
2022-08-28T09:34:16.805Z,60.65
2022-08-28T09:35:16.810Z,59.78
2022-08-28T09:36:16.802Z,60.08
2022-08-28T09:37:16.775Z,60.18
2022-08-28T09:38:16.764Z,60.18
2022-08-28T09:39:16.756Z,60.18
2022-08-28T09:40:16.830Z,60.38
2022-08-28T09:41:16.750Z,59.05
2022-08-28T09:42:16.723Z,59.05
2022-08-28T09:43:16.716Z,58.34
2022-08-28T09:44:16.728Z,59.14
2022-08-28T09:45:16.720Z,55.86
2022-08-28T09:46:16.794Z,56.59
2022-08-28T09:47:16.678Z,59.13
2022-08-28T09:48:16.668Z,58.50
2022-08-28T09:49:16.659Z,58.00
2022-08-28T09:50:16.667Z,58.53
2022-08-28T09:51:16.656Z,58.33
2022-08-28T09:52:16.631Z,60.00
2022-08-28T09:53:16.621Z,58.84
2022-08-28T09:54:16.628Z,57.37
2022-08-28T09:55:16.601Z,57.97
2022-08-28T09:56:16.591Z,58.07
2022-08-28T09:57:16.580Z,58.27
2022-08-28T09:58:16.569Z,57.84
2022-08-28T09:59:16.580Z,57.90
2022-08-28T10:00:16.552Z,58.70
2022-08-28T10:01:16.574Z,58.87
2022-08-28T10:02:16.532Z,57.52
2022-08-28T10:03:16.523Z,58.40
2022-08-28T10:04:16.566Z,58.50
2022-08-28T10:05:16.502Z,58.87
2022-08-28T10:06:16.489Z,57.34
2022-08-28T10:07:16.484Z,57.34
2022-08-28T10:08:16.472Z,57.54
2022-08-28T10:09:16.478Z,58.04
2022-08-28T10:10:17.635Z,59.72
2022-08-28T10:11:16.438Z,58.72
2022-08-28T10:12:16.429Z,58.01
2022-08-28T10:13:16.433Z,57.48
2022-08-28T10:14:16.467Z,58.59
2022-08-28T10:15:16.415Z,57.28
2022-08-28T10:16:16.564Z,59.66
2022-08-28T10:17:16.381Z,57.33
2022-08-28T10:18:17.377Z,56.52
2022-08-28T10:19:16.397Z,56.93
2022-08-28T10:20:16.356Z,56.02
2022-08-28T10:21:16.342Z,55.13
2022-08-28T10:22:16.333Z,55.65
2022-08-28T10:23:17.781Z,56.38
2022-08-28T10:24:24.721Z,56.08
2022-08-28T10:25:17.307Z,56.51
2022-08-28T10:26:16.294Z,57.71
2022-08-28T10:27:16.280Z,56.78
2022-08-28T10:28:16.279Z,56.88
2022-08-28T10:29:16.271Z,57.79
2022-08-28T10:30:16.272Z,57.76
2022-08-28T10:31:16.299Z,57.89
2022-08-28T10:32:16.229Z,56.28
2022-08-28T10:33:16.221Z,57.43
2022-08-28T10:34:17.208Z,56.30
2022-08-28T10:35:17.244Z,57.81
2022-08-28T10:36:32.117Z,58.22
2022-08-28T10:37:17.186Z,57.39
2022-08-28T10:38:16.184Z,56.98
2022-08-28T10:39:16.165Z,57.33
2022-08-28T10:40:16.269Z,55.60
2022-08-28T10:41:16.144Z,53.69
2022-08-28T10:42:16.134Z,53.07
2022-08-28T10:43:16.126Z,52.74
2022-08-28T10:44:16.120Z,52.82
2022-08-28T10:45:16.109Z,53.09
2022-08-28T10:46:16.168Z,52.42
2022-08-28T10:47:16.088Z,53.22
2022-08-28T10:48:16.079Z,52.67
2022-08-28T10:49:16.071Z,52.44
2022-08-28T10:50:16.069Z,52.07
2022-08-28T10:51:16.082Z,52.34
2022-08-28T10:52:16.043Z,52.04
2022-08-28T10:53:16.033Z,53.14
2022-08-28T10:54:16.020Z,52.72
2022-08-28T10:55:16.013Z,51.52
2022-08-28T10:56:16.074Z,50.07
2022-08-28T10:57:47.874Z,50.10
2022-08-28T10:58:24.284Z,50.90
2022-08-28T10:59:16.969Z,49.90
2022-08-28T11:00:15.962Z,48.48
2022-08-28T11:01:16.018Z,48.05
2022-08-28T11:02:16.015Z,48.02
2022-08-28T11:03:33.561Z,48.77
2022-08-28T11:04:24.918Z,49.32
2022-08-28T11:05:17.918Z,49.08
2022-08-28T11:06:15.906Z,48.55
2022-08-28T11:07:15.924Z,49.20
2022-08-28T11:08:15.888Z,49.52
2022-08-28T11:09:15.879Z,50.89
2022-08-28T11:10:15.866Z,50.12
2022-08-28T11:11:15.867Z,49.47
2022-08-28T11:12:15.848Z,47.92
2022-08-28T11:13:15.898Z,48.72
2022-08-28T11:14:15.833Z,47.20
2022-08-28T11:15:15.825Z,45.78
2022-08-28T11:16:15.869Z,46.33
2022-08-28T11:17:15.806Z,47.83
2022-08-28T11:18:15.835Z,47.55
2022-08-28T11:19:15.791Z,48.52
2022-08-28T11:20:15.791Z,47.60
2022-08-28T11:21:15.769Z,46.73
2022-08-28T11:22:15.756Z,47.87
2022-08-28T11:23:15.773Z,48.32
2022-08-28T11:24:15.738Z,50.42
2022-08-28T11:25:15.727Z,49.07
2022-08-28T11:26:15.718Z,49.95
2022-08-28T11:27:15.707Z,49.27
2022-08-28T11:28:15.698Z,49.15
2022-08-28T11:29:15.710Z,47.51
2022-08-28T11:30:15.681Z,46.91
2022-08-28T11:31:19.029Z,48.05
2022-08-28T11:32:16.668Z,47.74
2022-08-28T11:33:15.652Z,46.91
2022-08-28T11:34:15.705Z,46.12
2022-08-28T11:35:15.636Z,46.66
2022-08-28T11:36:15.623Z,47.66
2022-08-28T11:37:15.612Z,48.16
2022-08-28T11:38:18.426Z,46.94
2022-08-28T11:39:16.643Z,48.78
2022-08-28T11:40:15.652Z,48.68
2022-08-28T11:41:15.578Z,48.52
2022-08-28T11:42:15.568Z,49.02
2022-08-28T11:43:16.215Z,50.02
2022-08-28T11:44:15.601Z,48.90
2022-08-28T11:45:15.538Z,47.16
2022-08-28T11:46:15.579Z,46.64
2022-08-28T11:47:15.523Z,45.72
2022-08-28T11:48:15.511Z,46.91
2022-08-28T11:49:15.500Z,45.87
2022-08-28T11:50:15.507Z,44.68
2022-08-28T11:51:15.483Z,44.24
2022-08-28T11:52:15.473Z,43.62
2022-08-28T11:53:15.465Z,44.08
2022-08-28T11:54:15.451Z,46.09
2022-08-28T11:55:15.462Z,45.97
2022-08-28T11:56:18.628Z,44.85
2022-08-28T11:57:16.424Z,45.63
2022-08-28T11:58:15.425Z,44.26
2022-08-28T11:59:15.403Z,44.84
2022-08-28T12:00:15.466Z,43.82
2022-08-28T12:01:15.385Z,45.50
2022-08-28T12:02:15.448Z,45.87
2022-08-28T12:03:15.485Z,45.57
2022-08-28T12:04:15.405Z,44.76
2022-08-28T12:05:15.386Z,45.00
2022-08-28T12:06:15.333Z,44.88
2022-08-28T12:07:15.327Z,44.26
2022-08-28T12:08:15.319Z,44.16
2022-08-28T12:09:15.529Z,43.13
2022-08-28T12:10:15.301Z,42.79
2022-08-28T12:11:15.310Z,43.50
2022-08-28T12:12:15.281Z,42.71
2022-08-28T12:13:15.393Z,42.41
2022-08-28T12:14:15.264Z,43.32
2022-08-28T12:15:15.255Z,43.64
2022-08-28T12:16:15.798Z,43.42
2022-08-28T12:17:15.237Z,44.66
2022-08-28T12:18:15.229Z,44.68
2022-08-28T12:19:15.218Z,45.37
2022-08-28T12:20:15.206Z,45.30
2022-08-28T12:21:15.213Z,44.48
2022-08-28T12:22:15.188Z,44.08
2022-08-28T12:23:15.228Z,44.16
2022-08-28T12:24:15.171Z,43.54
2022-08-28T12:25:15.168Z,43.42
2022-08-28T12:26:15.171Z,43.74
2022-08-28T12:27:15.145Z,43.57
2022-08-28T12:28:15.147Z,44.20
2022-08-28T12:29:15.123Z,45.64
2022-08-28T12:30:15.115Z,45.47
2022-08-28T12:31:15.208Z,47.45
2022-08-28T12:32:15.129Z,46.68
2022-08-28T12:33:15.131Z,47.26
2022-08-28T12:34:15.074Z,46.58
2022-08-28T12:35:16.633Z,48.10
2022-08-28T12:36:16.086Z,47.78
2022-08-28T12:37:15.047Z,46.56
2022-08-28T12:38:15.039Z,46.08
2022-08-28T12:39:15.031Z,46.91
2022-08-28T12:40:15.061Z,46.20
2022-08-28T12:41:15.076Z,46.91
2022-08-28T12:42:14.999Z,48.30
2022-08-28T12:43:15.490Z,48.30
2022-08-28T12:44:14.980Z,47.71
2022-08-28T12:45:14.968Z,46.91
2022-08-28T12:46:19.373Z,48.05
2022-08-28T12:47:15.965Z,48.43
2022-08-28T12:48:14.942Z,47.53
2022-08-28T12:49:14.933Z,47.30
2022-08-28T12:50:14.918Z,47.60
2022-08-28T12:51:14.912Z,47.30
2022-08-28T12:52:16.912Z,48.30